sensor_id;sensor_type;location;lat;lon;timestamp;temperature;humidity
6672;DHT22;3372;48.690;12.362;2024-01-15T00:02:08;-0.30;73.60
6672;DHT22;3372;48.690;12.362;2024-01-15T00:04:40;-0.30;73.40
6672;DHT22;3372;48.690;12.362;2024-01-15T00:07:07;-0.40;72.70
6672;DHT22;3372;48.690;12.362;2024-01-15T00:09:33;-0.30;72.20
6672;DHT22;3372;48.690;12.362;2024-01-15T00:11:59;-0.30;71.30
6672;DHT22;3372;48.690;12.362;2024-01-15T00:14:25;-0.30;71.30
6672;DHT22;3372;48.690;12.362;2024-01-15T00:16:51;-0.30;70.70
6672;DHT22;3372;48.690;12.362;2024-01-15T00:19:17;-0.30;71.20
6672;DHT22;3372;48.690;12.362;2024-01-15T00:21:43;-0.20;70.60
6672;DHT22;3372;48.690;12.362;2024-01-15T00:24:09;-0.30;70.80
6672;DHT22;3372;48.690;12.362;2024-01-15T00:26:34;-0.30;71.20
6672;DHT22;3372;48.690;12.362;2024-01-15T00:29:00;-0.30;70.90
6672;DHT22;3372;48.690;12.362;2024-01-15T00:31:25;-0.20;70.30
6672;DHT22;3372;48.690;12.362;2024-01-15T00:33:51;-0.20;70.20
6672;DHT22;3372;48.690;12.362;2024-01-15T00:36:17;-0.20;69.70
6672;DHT22;3372;48.690;12.362;2024-01-15T00:38:44;-0.20;70.10
6672;DHT22;3372;48.690;12.362;2024-01-15T00:41:09;-0.20;70.00
6672;DHT22;3372;48.690;12.362;2024-01-15T00:43:35;-0.20;70.10
6672;DHT22;3372;48.690;12.362;2024-01-15T00:46:04;-0.40;71.40
6672;DHT22;3372;48.690;12.362;2024-01-15T00:48:30;-0.30;71.30
6672;DHT22;3372;48.690;12.362;2024-01-15T00:50:55;-0.20;69.90
6672;DHT22;3372;48.690;12.362;2024-01-15T00:53:21;-0.20;70.00
6672;DHT22;3372;48.690;12.362;2024-01-15T00:55:50;-0.10;69.80
6672;DHT22;3372;48.690;12.362;2024-01-15T00:58:15;-0.20;69.80
6672;DHT22;3372;48.690;12.362;2024-01-15T01:00:42;-0.10;70.20
6672;DHT22;3372;48.690;12.362;2024-01-15T01:03:08;-0.20;70.40
6672;DHT22;3372;48.690;12.362;2024-01-15T01:05:34;-0.30;70.40
6672;DHT22;3372;48.690;12.362;2024-01-15T01:08:00;-0.50;71.90
6672;DHT22;3372;48.690;12.362;2024-01-15T01:10:27;-0.40;71.70
6672;DHT22;3372;48.690;12.362;2024-01-15T01:12:53;-0.50;72.60
6672;DHT22;3372;48.690;12.362;2024-01-15T01:15:18;-0.40;71.50
6672;DHT22;3372;48.690;12.362;2024-01-15T01:17:45;-0.40;70.00
6672;DHT22;3372;48.690;12.362;2024-01-15T01:20:11;-0.40;71.00
6672;DHT22;3372;48.690;12.362;2024-01-15T01:22:37;-0.50;71.80
6672;DHT22;3372;48.690;12.362;2024-01-15T01:25:02;-0.50;71.20
6672;DHT22;3372;48.690;12.362;2024-01-15T01:27:28;-0.50;72.40
6672;DHT22;3372;48.690;12.362;2024-01-15T01:29:54;-0.60;71.30
6672;DHT22;3372;48.690;12.362;2024-01-15T01:32:19;-0.50;73.80
6672;DHT22;3372;48.690;12.362;2024-01-15T01:34:45;-0.40;72.30
6672;DHT22;3372;48.690;12.362;2024-01-15T01:37:11;-0.40;70.50
6672;DHT22;3372;48.690;12.362;2024-01-15T01:39:41;-0.50;69.40
6672;DHT22;3372;48.690;12.362;2024-01-15T01:42:07;-0.50;69.60
6672;DHT22;3372;48.690;12.362;2024-01-15T01:44:32;-0.60;70.60
6672;DHT22;3372;48.690;12.362;2024-01-15T01:47:01;-0.60;71.20
6672;DHT22;3372;48.690;12.362;2024-01-15T01:49:28;-0.70;71.70
6672;DHT22;3372;48.690;12.362;2024-01-15T01:51:57;-0.50;70.90
6672;DHT22;3372;48.690;12.362;2024-01-15T01:54:24;-0.60;69.90
6672;DHT22;3372;48.690;12.362;2024-01-15T01:56:51;-0.70;71.00
6672;DHT22;3372;48.690;12.362;2024-01-15T01:59:17;-0.60;71.50
6672;DHT22;3372;48.690;12.362;2024-01-15T02:01:43;-0.50;70.80
6672;DHT22;3372;48.690;12.362;2024-01-15T02:04:10;-0.50;70.40
6672;DHT22;3372;48.690;12.362;2024-01-15T02:06:36;-0.50;69.80
6672;DHT22;3372;48.690;12.362;2024-01-15T02:09:01;-0.40;70.00
6672;DHT22;3372;48.690;12.362;2024-01-15T02:11:27;-0.60;70.80
6672;DHT22;3372;48.690;12.362;2024-01-15T02:13:55;-0.50;70.20
6672;DHT22;3372;48.690;12.362;2024-01-15T02:16:21;-0.50;70.80
6672;DHT22;3372;48.690;12.362;2024-01-15T02:18:46;-0.40;70.70
6672;DHT22;3372;48.690;12.362;2024-01-15T02:21:12;-0.40;70.50
6672;DHT22;3372;48.690;12.362;2024-01-15T02:23:38;-0.40;70.30
6672;DHT22;3372;48.690;12.362;2024-01-15T02:26:07;-0.40;70.30
6672;DHT22;3372;48.690;12.362;2024-01-15T02:28:33;-0.50;69.10
6672;DHT22;3372;48.690;12.362;2024-01-15T02:30:59;-0.40;70.10
6672;DHT22;3372;48.690;12.362;2024-01-15T02:33:24;-0.50;70.40
6672;DHT22;3372;48.690;12.362;2024-01-15T02:35:50;-0.40;70.20
6672;DHT22;3372;48.690;12.362;2024-01-15T02:38:16;-0.60;70.60
6672;DHT22;3372;48.690;12.362;2024-01-15T02:40:43;-0.60;71.10
6672;DHT22;3372;48.690;12.362;2024-01-15T02:43:09;-0.50;70.50
6672;DHT22;3372;48.690;12.362;2024-01-15T02:45:35;-0.40;69.90
6672;DHT22;3372;48.690;12.362;2024-01-15T02:48:00;-0.40;69.60
6672;DHT22;3372;48.690;12.362;2024-01-15T02:50:26;-0.40;69.50
6672;DHT22;3372;48.690;12.362;2024-01-15T02:52:52;-0.40;68.50
6672;DHT22;3372;48.690;12.362;2024-01-15T02:55:17;-0.40;69.20
6672;DHT22;3372;48.690;12.362;2024-01-15T02:57:43;-0.40;69.20
6672;DHT22;3372;48.690;12.362;2024-01-15T03:00:09;-0.30;68.60
6672;DHT22;3372;48.690;12.362;2024-01-15T03:02:40;-0.30;68.10
6672;DHT22;3372;48.690;12.362;2024-01-15T03:05:12;-0.30;67.50
6672;DHT22;3372;48.690;12.362;2024-01-15T03:07:37;-0.40;66.70
6672;DHT22;3372;48.690;12.362;2024-01-15T03:10:04;-0.40;67.80
6672;DHT22;3372;48.690;12.362;2024-01-15T03:12:30;-0.40;67.20
6672;DHT22;3372;48.690;12.362;2024-01-15T03:14:55;-0.50;66.90
6672;DHT22;3372;48.690;12.362;2024-01-15T03:17:21;-0.50;66.60
6672;DHT22;3372;48.690;12.362;2024-01-15T03:19:46;-0.50;68.40
6672;DHT22;3372;48.690;12.362;2024-01-15T03:22:12;-0.50;69.40
6672;DHT22;3372;48.690;12.362;2024-01-15T03:24:38;-0.50;67.80
6672;DHT22;3372;48.690;12.362;2024-01-15T03:27:03;-0.70;70.00
6672;DHT22;3372;48.690;12.362;2024-01-15T03:29:29;-0.60;68.70
6672;DHT22;3372;48.690;12.362;2024-01-15T03:31:54;-0.70;69.40
6672;DHT22;3372;48.690;12.362;2024-01-15T03:34:20;-0.60;69.00
6672;DHT22;3372;48.690;12.362;2024-01-15T03:36:45;-0.60;68.60
6672;DHT22;3372;48.690;12.362;2024-01-15T03:39:11;-0.60;68.00
6672;DHT22;3372;48.690;12.362;2024-01-15T03:41:37;-0.50;68.40
6672;DHT22;3372;48.690;12.362;2024-01-15T03:44:02;-0.50;67.90
6672;DHT22;3372;48.690;12.362;2024-01-15T03:46:28;-0.60;68.70
6672;DHT22;3372;48.690;12.362;2024-01-15T03:48:53;-0.50;68.70
6672;DHT22;3372;48.690;12.362;2024-01-15T03:51:19;-0.50;68.20
6672;DHT22;3372;48.690;12.362;2024-01-15T03:53:45;-0.40;68.40
6672;DHT22;3372;48.690;12.362;2024-01-15T03:56:10;-0.50;68.30
6672;DHT22;3372;48.690;12.362;2024-01-15T03:58:36;-0.50;69.00
6672;DHT22;3372;48.690;12.362;2024-01-15T04:01:02;-0.60;69.00
6672;DHT22;3372;48.690;12.362;2024-01-15T04:03:27;-0.50;69.30
6672;DHT22;3372;48.690;12.362;2024-01-15T04:05:53;-0.50;70.40
6672;DHT22;3372;48.690;12.362;2024-01-15T04:08:18;-0.60;70.30
6672;DHT22;3372;48.690;12.362;2024-01-15T04:10:44;-0.50;70.10
6672;DHT22;3372;48.690;12.362;2024-01-15T04:13:10;-0.50;69.30
6672;DHT22;3372;48.690;12.362;2024-01-15T04:15:35;-0.40;69.00
6672;DHT22;3372;48.690;12.362;2024-01-15T04:18:02;-0.40;69.20
6672;DHT22;3372;48.690;12.362;2024-01-15T04:20:28;-0.40;69.40
6672;DHT22;3372;48.690;12.362;2024-01-15T04:22:53;-0.30;68.70
6672;DHT22;3372;48.690;12.362;2024-01-15T04:25:19;-0.20;68.00
6672;DHT22;3372;48.690;12.362;2024-01-15T04:27:45;-0.20;67.40
6672;DHT22;3372;48.690;12.362;2024-01-15T04:30:10;-0.10;67.70
6672;DHT22;3372;48.690;12.362;2024-01-15T04:32:36;-0.10;66.60
6672;DHT22;3372;48.690;12.362;2024-01-15T04:35:02;-0.10;67.10
6672;DHT22;3372;48.690;12.362;2024-01-15T04:37:27;-0.10;67.40
6672;DHT22;3372;48.690;12.362;2024-01-15T04:39:53;-0.10;66.20
6672;DHT22;3372;48.690;12.362;2024-01-15T04:42:21;-0.10;65.90
6672;DHT22;3372;48.690;12.362;2024-01-15T04:44:46;-0.10;66.40
6672;DHT22;3372;48.690;12.362;2024-01-15T04:47:12;0.00;66.10
6672;DHT22;3372;48.690;12.362;2024-01-15T04:49:38;-0.20;65.50
6672;DHT22;3372;48.690;12.362;2024-01-15T04:52:03;-0.10;65.90
6672;DHT22;3372;48.690;12.362;2024-01-15T04:54:29;0.00;66.10
6672;DHT22;3372;48.690;12.362;2024-01-15T04:56:54;0.00;65.60
6672;DHT22;3372;48.690;12.362;2024-01-15T04:59:20;0.00;65.40
6672;DHT22;3372;48.690;12.362;2024-01-15T05:01:45;0.00;66.60
6672;DHT22;3372;48.690;12.362;2024-01-15T05:04:11;0.00;65.60
6672;DHT22;3372;48.690;12.362;2024-01-15T05:06:36;0.00;66.50
6672;DHT22;3372;48.690;12.362;2024-01-15T05:09:02;0.00;66.40
6672;DHT22;3372;48.690;12.362;2024-01-15T05:11:29;0.10;65.70
6672;DHT22;3372;48.690;12.362;2024-01-15T05:13:54;0.10;66.00
6672;DHT22;3372;48.690;12.362;2024-01-15T05:16:20;0.20;65.70
6672;DHT22;3372;48.690;12.362;2024-01-15T05:18:46;0.20;66.20
6672;DHT22;3372;48.690;12.362;2024-01-15T05:21:11;0.20;65.00
6672;DHT22;3372;48.690;12.362;2024-01-15T05:23:38;0.10;66.50
6672;DHT22;3372;48.690;12.362;2024-01-15T05:26:04;0.20;66.90
6672;DHT22;3372;48.690;12.362;2024-01-15T05:28:29;0.20;66.30
6672;DHT22;3372;48.690;12.362;2024-01-15T05:30:55;0.20;66.20
6672;DHT22;3372;48.690;12.362;2024-01-15T05:33:24;0.10;66.50
6672;DHT22;3372;48.690;12.362;2024-01-15T05:35:50;0.20;66.80
6672;DHT22;3372;48.690;12.362;2024-01-15T05:38:16;0.20;67.20
6672;DHT22;3372;48.690;12.362;2024-01-15T05:40:42;0.20;66.20
6672;DHT22;3372;48.690;12.362;2024-01-15T05:43:07;0.30;67.20
6672;DHT22;3372;48.690;12.362;2024-01-15T05:45:34;0.30;68.20
6672;DHT22;3372;48.690;12.362;2024-01-15T05:48:01;0.20;70.00
6672;DHT22;3372;48.690;12.362;2024-01-15T05:50:26;0.10;72.20
6672;DHT22;3372;48.690;12.362;2024-01-15T05:52:52;0.10;72.50
6672;DHT22;3372;48.690;12.362;2024-01-15T05:55:17;0.20;71.60
6672;DHT22;3372;48.690;12.362;2024-01-15T05:57:44;0.30;71.30
6672;DHT22;3372;48.690;12.362;2024-01-15T06:00:10;0.40;70.70
6672;DHT22;3372;48.690;12.362;2024-01-15T06:02:39;0.40;70.20
6672;DHT22;3372;48.690;12.362;2024-01-15T06:05:05;0.40;69.10
6672;DHT22;3372;48.690;12.362;2024-01-15T06:07:32;0.50;68.20
6672;DHT22;3372;48.690;12.362;2024-01-15T06:09:57;0.50;70.30
6672;DHT22;3372;48.690;12.362;2024-01-15T06:12:23;0.50;69.20
6672;DHT22;3372;48.690;12.362;2024-01-15T06:14:49;0.50;69.10
6672;DHT22;3372;48.690;12.362;2024-01-15T06:17:14;0.50;68.60
6672;DHT22;3372;48.690;12.362;2024-01-15T06:19:40;0.50;68.90
6672;DHT22;3372;48.690;12.362;2024-01-15T06:22:05;0.60;68.40
6672;DHT22;3372;48.690;12.362;2024-01-15T06:24:31;0.60;67.90
6672;DHT22;3372;48.690;12.362;2024-01-15T06:26:56;0.60;67.50
6672;DHT22;3372;48.690;12.362;2024-01-15T06:29:25;0.60;67.40
6672;DHT22;3372;48.690;12.362;2024-01-15T06:31:51;0.70;67.00
6672;DHT22;3372;48.690;12.362;2024-01-15T06:34:16;0.50;66.70
6672;DHT22;3372;48.690;12.362;2024-01-15T06:36:42;0.70;68.20
6672;DHT22;3372;48.690;12.362;2024-01-15T06:39:08;0.70;67.10
6672;DHT22;3372;48.690;12.362;2024-01-15T06:41:33;0.60;67.30
6672;DHT22;3372;48.690;12.362;2024-01-15T06:43:59;0.70;67.00
6672;DHT22;3372;48.690;12.362;2024-01-15T06:46:25;0.70;66.00
6672;DHT22;3372;48.690;12.362;2024-01-15T06:48:50;0.70;65.70
6672;DHT22;3372;48.690;12.362;2024-01-15T06:51:16;0.80;65.50
6672;DHT22;3372;48.690;12.362;2024-01-15T06:53:41;0.80;64.70
6672;DHT22;3372;48.690;12.362;2024-01-15T06:56:07;0.90;65.20
6672;DHT22;3372;48.690;12.362;2024-01-15T06:58:33;0.90;63.40
6672;DHT22;3372;48.690;12.362;2024-01-15T07:00:58;0.90;63.40
6672;DHT22;3372;48.690;12.362;2024-01-15T07:03:24;0.90;62.50
6672;DHT22;3372;48.690;12.362;2024-01-15T07:05:49;0.90;63.80
6672;DHT22;3372;48.690;12.362;2024-01-15T07:08:15;1.00;62.30
6672;DHT22;3372;48.690;12.362;2024-01-15T07:10:41;1.00;62.20
6672;DHT22;3372;48.690;12.362;2024-01-15T07:13:06;1.00;61.60
6672;DHT22;3372;48.690;12.362;2024-01-15T07:15:32;1.00;62.20
6672;DHT22;3372;48.690;12.362;2024-01-15T07:17:57;1.10;62.50
6672;DHT22;3372;48.690;12.362;2024-01-15T07:20:23;1.10;61.80
6672;DHT22;3372;48.690;12.362;2024-01-15T07:22:48;1.00;61.00
6672;DHT22;3372;48.690;12.362;2024-01-15T07:25:15;1.00;61.00
6672;DHT22;3372;48.690;12.362;2024-01-15T07:27:41;1.10;60.40
6672;DHT22;3372;48.690;12.362;2024-01-15T07:30:12;1.10;60.00
6672;DHT22;3372;48.690;12.362;2024-01-15T07:35:04;1.20;59.80
6672;DHT22;3372;48.690;12.362;2024-01-15T07:37:31;1.20;59.60
6672;DHT22;3372;48.690;12.362;2024-01-15T07:39:57;1.20;59.30
6672;DHT22;3372;48.690;12.362;2024-01-15T07:42:23;1.30;59.20
6672;DHT22;3372;48.690;12.362;2024-01-15T07:44:49;1.30;58.10
6672;DHT22;3372;48.690;12.362;2024-01-15T07:47:16;1.30;56.30
6672;DHT22;3372;48.690;12.362;2024-01-15T07:49:42;1.30;56.60
6672;DHT22;3372;48.690;12.362;2024-01-15T07:52:07;1.40;56.90
6672;DHT22;3372;48.690;12.362;2024-01-15T07:54:33;1.40;57.50
6672;DHT22;3372;48.690;12.362;2024-01-15T07:57:00;1.50;57.00
6672;DHT22;3372;48.690;12.362;2024-01-15T07:59:26;1.50;56.40
6672;DHT22;3372;48.690;12.362;2024-01-15T08:01:53;1.60;56.10
6672;DHT22;3372;48.690;12.362;2024-01-15T08:04:19;1.60;54.60
6672;DHT22;3372;48.690;12.362;2024-01-15T08:06:45;1.60;54.70
6672;DHT22;3372;48.690;12.362;2024-01-15T08:09:11;1.70;53.30
6672;DHT22;3372;48.690;12.362;2024-01-15T08:11:41;1.70;51.50
6672;DHT22;3372;48.690;12.362;2024-01-15T08:14:07;1.70;52.20
6672;DHT22;3372;48.690;12.362;2024-01-15T08:16:33;1.70;52.60
6672;DHT22;3372;48.690;12.362;2024-01-15T08:18:59;1.80;50.30
6672;DHT22;3372;48.690;12.362;2024-01-15T08:21:25;1.80;49.30
6672;DHT22;3372;48.690;12.362;2024-01-15T08:23:52;1.80;49.70
6672;DHT22;3372;48.690;12.362;2024-01-15T08:26:17;1.90;51.10
6672;DHT22;3372;48.690;12.362;2024-01-15T08:28:43;1.90;49.10
6672;DHT22;3372;48.690;12.362;2024-01-15T08:31:08;1.90;50.30
6672;DHT22;3372;48.690;12.362;2024-01-15T08:33:34;1.70;46.60
6672;DHT22;3372;48.690;12.362;2024-01-15T08:36:01;1.80;49.90
6672;DHT22;3372;48.690;12.362;2024-01-15T08:38:26;1.80;49.30
6672;DHT22;3372;48.690;12.362;2024-01-15T08:40:52;1.90;50.80
6672;DHT22;3372;48.690;12.362;2024-01-15T08:43:18;2.00;50.30
6672;DHT22;3372;48.690;12.362;2024-01-15T08:45:44;2.10;48.50
6672;DHT22;3372;48.690;12.362;2024-01-15T08:48:12;2.10;48.60
6672;DHT22;3372;48.690;12.362;2024-01-15T08:50:37;2.10;49.00
6672;DHT22;3372;48.690;12.362;2024-01-15T08:53:03;2.10;47.50
6672;DHT22;3372;48.690;12.362;2024-01-15T08:55:31;2.20;48.70
6672;DHT22;3372;48.690;12.362;2024-01-15T08:57:56;2.20;46.20
6672;DHT22;3372;48.690;12.362;2024-01-15T09:00:22;2.10;46.80
6672;DHT22;3372;48.690;12.362;2024-01-15T09:02:47;2.20;46.50
6672;DHT22;3372;48.690;12.362;2024-01-15T09:05:13;2.30;46.70
6672;DHT22;3372;48.690;12.362;2024-01-15T09:07:38;2.10;43.80
6672;DHT22;3372;48.690;12.362;2024-01-15T09:10:04;2.20;45.50
6672;DHT22;3372;48.690;12.362;2024-01-15T09:12:30;2.30;45.40
6672;DHT22;3372;48.690;12.362;2024-01-15T09:14:55;2.30;43.90
6672;DHT22;3372;48.690;12.362;2024-01-15T09:17:21;2.20;44.90
6672;DHT22;3372;48.690;12.362;2024-01-15T09:19:49;2.30;43.90
6672;DHT22;3372;48.690;12.362;2024-01-15T09:22:15;2.30;41.90
6672;DHT22;3372;48.690;12.362;2024-01-15T09:24:44;2.40;43.40
6672;DHT22;3372;48.690;12.362;2024-01-15T09:27:09;2.20;42.10
6672;DHT22;3372;48.690;12.362;2024-01-15T09:29:35;2.30;42.60
6672;DHT22;3372;48.690;12.362;2024-01-15T09:32:03;2.40;43.20
6672;DHT22;3372;48.690;12.362;2024-01-15T09:34:29;2.30;42.10
6672;DHT22;3372;48.690;12.362;2024-01-15T09:36:55;2.40;42.50
6672;DHT22;3372;48.690;12.362;2024-01-15T09:39:20;2.30;41.60
6672;DHT22;3372;48.690;12.362;2024-01-15T09:41:48;2.50;41.30
6672;DHT22;3372;48.690;12.362;2024-01-15T09:44:13;2.40;40.00
6672;DHT22;3372;48.690;12.362;2024-01-15T09:46:40;2.40;40.90
6672;DHT22;3372;48.690;12.362;2024-01-15T09:49:06;2.40;39.90
6672;DHT22;3372;48.690;12.362;2024-01-15T09:51:32;2.60;41.00
6672;DHT22;3372;48.690;12.362;2024-01-15T09:53:58;2.60;40.90
6672;DHT22;3372;48.690;12.362;2024-01-15T09:56:27;2.50;39.30
6672;DHT22;3372;48.690;12.362;2024-01-15T09:58:53;2.60;38.60
6672;DHT22;3372;48.690;12.362;2024-01-15T10:01:22;2.60;38.50
6672;DHT22;3372;48.690;12.362;2024-01-15T10:03:49;2.60;37.40
6672;DHT22;3372;48.690;12.362;2024-01-15T10:06:16;2.50;36.00
6672;DHT22;3372;48.690;12.362;2024-01-15T10:08:49;2.50;38.60
6672;DHT22;3372;48.690;12.362;2024-01-15T10:11:15;2.60;38.70
6672;DHT22;3372;48.690;12.362;2024-01-15T10:13:46;2.60;38.40
6672;DHT22;3372;48.690;12.362;2024-01-15T10:16:12;2.60;38.70
6672;DHT22;3372;48.690;12.362;2024-01-15T10:18:38;2.60;39.20
6672;DHT22;3372;48.690;12.362;2024-01-15T10:21:07;2.60;39.10
6672;DHT22;3372;48.690;12.362;2024-01-15T10:23:32;2.60;38.70
6672;DHT22;3372;48.690;12.362;2024-01-15T10:25:58;2.70;37.60
6672;DHT22;3372;48.690;12.362;2024-01-15T10:28:26;2.70;38.20
6672;DHT22;3372;48.690;12.362;2024-01-15T10:30:59;2.60;37.70
6672;DHT22;3372;48.690;12.362;2024-01-15T10:33:28;2.70;39.30
6672;DHT22;3372;48.690;12.362;2024-01-15T10:35:54;2.80;38.70
6672;DHT22;3372;48.690;12.362;2024-01-15T10:38:23;2.80;36.50
6672;DHT22;3372;48.690;12.362;2024-01-15T10:40:53;2.90;37.30
6672;DHT22;3372;48.690;12.362;2024-01-15T10:43:19;3.00;37.60
6672;DHT22;3372;48.690;12.362;2024-01-15T10:45:47;3.00;36.50
6672;DHT22;3372;48.690;12.362;2024-01-15T10:48:13;2.80;34.60
6672;DHT22;3372;48.690;12.362;2024-01-15T10:50:38;3.00;35.10
6672;DHT22;3372;48.690;12.362;2024-01-15T10:53:05;3.10;37.00
6672;DHT22;3372;48.690;12.362;2024-01-15T10:55:32;3.20;35.30
6672;DHT22;3372;48.690;12.362;2024-01-15T10:57:59;3.20;34.30
6672;DHT22;3372;48.690;12.362;2024-01-15T11:00:26;3.30;34.80
6672;DHT22;3372;48.690;12.362;2024-01-15T11:02:52;3.30;33.60
6672;DHT22;3372;48.690;12.362;2024-01-15T11:05:21;3.30;33.00
6672;DHT22;3372;48.690;12.362;2024-01-15T11:07:48;3.40;33.60
6672;DHT22;3372;48.690;12.362;2024-01-15T11:10:46;3.20;31.80
6672;DHT22;3372;48.690;12.362;2024-01-15T11:15:57;3.10;32.00
6672;DHT22;3372;48.690;12.362;2024-01-15T11:18:23;3.20;33.70
6672;DHT22;3372;48.690;12.362;2024-01-15T11:26:37;3.20;34.60
6672;DHT22;3372;48.690;12.362;2024-01-15T11:29:05;3.20;32.20
6672;DHT22;3372;48.690;12.362;2024-01-15T11:34:07;3.40;33.50
6672;DHT22;3372;48.690;12.362;2024-01-15T11:39:40;3.40;30.70
6672;DHT22;3372;48.690;12.362;2024-01-15T11:42:11;3.40;31.20
6672;DHT22;3372;48.690;12.362;2024-01-15T11:44:38;3.30;32.10
6672;DHT22;3372;48.690;12.362;2024-01-15T11:47:11;3.30;31.00
6672;DHT22;3372;48.690;12.362;2024-01-15T11:52:25;3.40;31.90
6672;DHT22;3372;48.690;12.362;2024-01-15T11:59:56;3.50;32.50
6672;DHT22;3372;48.690;12.362;2024-01-15T12:02:22;3.70;32.60
6672;DHT22;3372;48.690;12.362;2024-01-15T12:04:48;3.70;29.30
6672;DHT22;3372;48.690;12.362;2024-01-15T12:07:13;3.80;30.00
6672;DHT22;3372;48.690;12.362;2024-01-15T12:09:45;3.80;28.90
6672;DHT22;3372;48.690;12.362;2024-01-15T12:12:20;3.90;29.60
6672;DHT22;3372;48.690;12.362;2024-01-15T12:14:49;3.90;28.80
6672;DHT22;3372;48.690;12.362;2024-01-15T12:17:14;3.90;27.60
6672;DHT22;3372;48.690;12.362;2024-01-15T12:19:40;3.90;27.00
6672;DHT22;3372;48.690;12.362;2024-01-15T12:22:06;3.80;28.30
6672;DHT22;3372;48.690;12.362;2024-01-15T12:24:32;3.90;27.90
6672;DHT22;3372;48.690;12.362;2024-01-15T12:26:57;3.90;28.10
6672;DHT22;3372;48.690;12.362;2024-01-15T12:29:23;3.80;27.70
6672;DHT22;3372;48.690;12.362;2024-01-15T12:31:49;3.80;27.60
6672;DHT22;3372;48.690;12.362;2024-01-15T12:34:14;3.70;27.50
6672;DHT22;3372;48.690;12.362;2024-01-15T12:36:40;3.70;27.80
6672;DHT22;3372;48.690;12.362;2024-01-15T12:39:10;3.60;27.40
6672;DHT22;3372;48.690;12.362;2024-01-15T12:41:36;3.80;28.20
6672;DHT22;3372;48.690;12.362;2024-01-15T12:44:03;3.80;28.10
6672;DHT22;3372;48.690;12.362;2024-01-15T12:46:29;3.80;27.20
6672;DHT22;3372;48.690;12.362;2024-01-15T12:48:56;3.80;28.20
6672;DHT22;3372;48.690;12.362;2024-01-15T12:51:25;3.80;28.50
6672;DHT22;3372;48.690;12.362;2024-01-15T12:53:51;3.80;28.10
6672;DHT22;3372;48.690;12.362;2024-01-15T12:56:17;3.70;27.80
6672;DHT22;3372;48.690;12.362;2024-01-15T12:58:43;3.70;27.30
6672;DHT22;3372;48.690;12.362;2024-01-15T13:01:09;3.50;26.70
6672;DHT22;3372;48.690;12.362;2024-01-15T13:03:34;3.50;27.20
6672;DHT22;3372;48.690;12.362;2024-01-15T13:06:00;3.50;27.70
6672;DHT22;3372;48.690;12.362;2024-01-15T13:08:26;3.40;27.40
6672;DHT22;3372;48.690;12.362;2024-01-15T13:10:53;3.40;28.00
6672;DHT22;3372;48.690;12.362;2024-01-15T13:13:22;3.20;28.40
6672;DHT22;3372;48.690;12.362;2024-01-15T13:15:48;3.20;28.50
6672;DHT22;3372;48.690;12.362;2024-01-15T13:18:13;3.30;28.00
6672;DHT22;3372;48.690;12.362;2024-01-15T13:20:39;3.30;28.20
6672;DHT22;3372;48.690;12.362;2024-01-15T13:23:05;3.30;28.70
6672;DHT22;3372;48.690;12.362;2024-01-15T13:25:31;3.30;28.10
6672;DHT22;3372;48.690;12.362;2024-01-15T13:27:57;3.40;28.00
6672;DHT22;3372;48.690;12.362;2024-01-15T13:30:23;3.30;27.00
6672;DHT22;3372;48.690;12.362;2024-01-15T13:32:48;3.30;28.30
6672;DHT22;3372;48.690;12.362;2024-01-15T13:35:14;3.30;27.90
6672;DHT22;3372;48.690;12.362;2024-01-15T13:37:39;3.20;29.20
6672;DHT22;3372;48.690;12.362;2024-01-15T13:40:07;3.00;27.70
6672;DHT22;3372;48.690;12.362;2024-01-15T13:42:35;3.10;29.40
6672;DHT22;3372;48.690;12.362;2024-01-15T13:45:04;3.10;29.00
6672;DHT22;3372;48.690;12.362;2024-01-15T13:47:31;3.20;29.20
6672;DHT22;3372;48.690;12.362;2024-01-15T13:49:57;3.20;28.40
6672;DHT22;3372;48.690;12.362;2024-01-15T13:52:23;3.20;28.40
6672;DHT22;3372;48.690;12.362;2024-01-15T13:54:48;3.20;28.00
6672;DHT22;3372;48.690;12.362;2024-01-15T13:57:14;3.30;28.70
6672;DHT22;3372;48.690;12.362;2024-01-15T13:59:40;3.30;27.40
6672;DHT22;3372;48.690;12.362;2024-01-15T14:02:05;3.20;28.20
6672;DHT22;3372;48.690;12.362;2024-01-15T14:04:31;3.20;28.80
6672;DHT22;3372;48.690;12.362;2024-01-15T14:06:56;3.30;29.00
6672;DHT22;3372;48.690;12.362;2024-01-15T14:09:22;3.20;27.90
6672;DHT22;3372;48.690;12.362;2024-01-15T14:11:48;3.10;28.50
6672;DHT22;3372;48.690;12.362;2024-01-15T14:14:14;3.10;28.60
6672;DHT22;3372;48.690;12.362;2024-01-15T14:16:39;3.20;29.60
6672;DHT22;3372;48.690;12.362;2024-01-15T14:19:05;3.20;28.50
6672;DHT22;3372;48.690;12.362;2024-01-15T14:21:35;3.10;28.40
6672;DHT22;3372;48.690;12.362;2024-01-15T14:24:00;3.10;29.20
6672;DHT22;3372;48.690;12.362;2024-01-15T14:26:26;3.20;29.60
6672;DHT22;3372;48.690;12.362;2024-01-15T14:28:52;3.20;29.40
6672;DHT22;3372;48.690;12.362;2024-01-15T14:31:17;3.30;29.60
6672;DHT22;3372;48.690;12.362;2024-01-15T14:33:43;3.30;29.40
6672;DHT22;3372;48.690;12.362;2024-01-15T14:36:09;3.20;30.50
6672;DHT22;3372;48.690;12.362;2024-01-15T14:38:34;3.20;32.30
6672;DHT22;3372;48.690;12.362;2024-01-15T14:41:01;3.00;33.30
6672;DHT22;3372;48.690;12.362;2024-01-15T14:43:30;2.90;38.40
6672;DHT22;3372;48.690;12.362;2024-01-15T14:45:58;2.60;46.10
6672;DHT22;3372;48.690;12.362;2024-01-15T14:48:25;2.70;48.30
6672;DHT22;3372;48.690;12.362;2024-01-15T14:50:56;2.80;50.40
6672;DHT22;3372;48.690;12.362;2024-01-15T14:53:25;2.70;53.00
6672;DHT22;3372;48.690;12.362;2024-01-15T14:55:50;2.70;53.60
6672;DHT22;3372;48.690;12.362;2024-01-15T14:58:16;2.60;54.80
6672;DHT22;3372;48.690;12.362;2024-01-15T15:00:41;2.70;54.90
6672;DHT22;3372;48.690;12.362;2024-01-15T15:03:07;2.70;54.90
6672;DHT22;3372;48.690;12.362;2024-01-15T15:05:33;2.80;55.20
6672;DHT22;3372;48.690;12.362;2024-01-15T15:07:58;2.80;56.00
6672;DHT22;3372;48.690;12.362;2024-01-15T15:10:24;2.80;56.80
6672;DHT22;3372;48.690;12.362;2024-01-15T15:12:49;2.80;57.70
6672;DHT22;3372;48.690;12.362;2024-01-15T15:15:15;2.80;57.50
6672;DHT22;3372;48.690;12.362;2024-01-15T15:17:42;2.70;59.10
6672;DHT22;3372;48.690;12.362;2024-01-15T15:20:08;2.80;58.70
6672;DHT22;3372;48.690;12.362;2024-01-15T15:22:34;2.90;57.70
6672;DHT22;3372;48.690;12.362;2024-01-15T15:24:59;2.80;59.00
6672;DHT22;3372;48.690;12.362;2024-01-15T15:27:25;2.80;60.40
6672;DHT22;3372;48.690;12.362;2024-01-15T15:29:53;2.70;61.10
6672;DHT22;3372;48.690;12.362;2024-01-15T15:32:18;2.80;61.30
6672;DHT22;3372;48.690;12.362;2024-01-15T15:34:44;2.80;61.80
6672;DHT22;3372;48.690;12.362;2024-01-15T15:37:10;2.70;63.30
6672;DHT22;3372;48.690;12.362;2024-01-15T15:39:36;2.70;63.50
6672;DHT22;3372;48.690;12.362;2024-01-15T15:42:01;2.70;64.50
6672;DHT22;3372;48.690;12.362;2024-01-15T15:44:27;2.70;64.60
6672;DHT22;3372;48.690;12.362;2024-01-15T15:46:53;2.80;64.50
6672;DHT22;3372;48.690;12.362;2024-01-15T15:49:18;2.70;65.40
6672;DHT22;3372;48.690;12.362;2024-01-15T15:51:44;2.70;65.40
6672;DHT22;3372;48.690;12.362;2024-01-15T15:54:10;2.60;66.50
6672;DHT22;3372;48.690;12.362;2024-01-15T15:56:36;2.60;68.20
6672;DHT22;3372;48.690;12.362;2024-01-15T15:59:05;2.60;70.60
6672;DHT22;3372;48.690;12.362;2024-01-15T16:01:35;2.50;71.70
6672;DHT22;3372;48.690;12.362;2024-01-15T16:04:00;2.60;71.30
6672;DHT22;3372;48.690;12.362;2024-01-15T16:06:26;2.60;72.20
6672;DHT22;3372;48.690;12.362;2024-01-15T16:08:52;2.50;72.60
6672;DHT22;3372;48.690;12.362;2024-01-15T16:11:18;2.50;76.40
6672;DHT22;3372;48.690;12.362;2024-01-15T16:13:44;2.50;77.70
6672;DHT22;3372;48.690;12.362;2024-01-15T16:16:10;2.50;79.50